Weather at Dresden Airport

Public forecast

Using degrees Celsius for public forecast. Weather courtesy of forecast.io.

Current aviation weather report (METAR) for Dresden Airport

2024/05/29 11:20 (retrieved 27 minutes ago)

EDDC 291120Z AUTO 19006KT 140V260 CAVOK 21/08 Q1013 NOSIG

Aviation forecast (TAF) for Dresden Airport

2024/05/29 06:27 (retrieved 5 hours ago)

TAF EDDC 290500Z 2906/3006 19006KT CAVOK PROB30 TEMPO 2920/2923 SHRA BKN040CB TEMPO 3000/3005 4000 RA FEW008 BKN013